sensor_id;sensor_type;location;lat;lon;timestamp;temperature;humidity
21115;DHT22;10715;48.546;9.896;2022-07-24T00:02:07;16.20;99.90
21115;DHT22;10715;48.546;9.896;2022-07-24T00:04:33;16.20;99.90
21115;DHT22;10715;48.546;9.896;2022-07-24T00:06:59;16.20;99.90
21115;DHT22;10715;48.546;9.896;2022-07-24T00:09:25;16.10;99.90
21115;DHT22;10715;48.546;9.896;2022-07-24T00:11:50;16.10;99.90
21115;DHT22;10715;48.546;9.896;2022-07-24T00:14:16;16.00;99.90
21115;DHT22;10715;48.546;9.896;2022-07-24T00:16:42;15.90;99.90
21115;DHT22;10715;48.546;9.896;2022-07-24T00:19:08;15.80;99.90
21115;DHT22;10715;48.546;9.896;2022-07-24T00:21:34;15.80;99.90
21115;DHT22;10715;48.546;9.896;2022-07-24T00:24:00;15.80;99.90
21115;DHT22;10715;48.546;9.896;2022-07-24T00:26:25;15.70;99.90
21115;DHT22;10715;48.546;9.896;2022-07-24T00:28:51;15.70;99.90
21115;DHT22;10715;48.546;9.896;2022-07-24T00:31:17;15.70;99.90
21115;DHT22;10715;48.546;9.896;2022-07-24T00:33:43;15.70;99.90
21115;DHT22;10715;48.546;9.896;2022-07-24T00:36:08;15.70;99.90
21115;DHT22;10715;48.546;9.896;2022-07-24T00:38:34;15.70;99.90
21115;DHT22;10715;48.546;9.896;2022-07-24T00:41:00;15.70;99.90
21115;DHT22;10715;48.546;9.896;2022-07-24T00:43:25;15.60;99.90
21115;DHT22;10715;48.546;9.896;2022-07-24T00:45:51;15.60;99.90
21115;DHT22;10715;48.546;9.896;2022-07-24T00:48:17;15.60;99.90
21115;DHT22;10715;48.546;9.896;2022-07-24T00:50:43;15.50;99.90
21115;DHT22;10715;48.546;9.896;2022-07-24T00:53:10;15.60;99.90
21115;DHT22;10715;48.546;9.896;2022-07-24T00:55:36;15.60;99.90
21115;DHT22;10715;48.546;9.896;2022-07-24T00:58:02;15.60;99.90
21115;DHT22;10715;48.546;9.896;2022-07-24T01:00:29;15.60;99.90
21115;DHT22;10715;48.546;9.896;2022-07-24T01:02:55;15.50;99.90
21115;DHT22;10715;48.546;9.896;2022-07-24T01:05:21;15.60;99.90
21115;DHT22;10715;48.546;9.896;2022-07-24T01:07:47;15.50;99.90
21115;DHT22;10715;48.546;9.896;2022-07-24T01:10:13;15.50;99.90
21115;DHT22;10715;48.546;9.896;2022-07-24T01:12:41;15.50;99.90
21115;DHT22;10715;48.546;9.896;2022-07-24T01:15:09;15.40;99.90
21115;DHT22;10715;48.546;9.896;2022-07-24T01:17:38;15.20;99.90
21115;DHT22;10715;48.546;9.896;2022-07-24T01:20:05;15.20;99.90
21115;DHT22;10715;48.546;9.896;2022-07-24T01:22:32;15.10;99.90
21115;DHT22;10715;48.546;9.896;2022-07-24T01:24:58;15.00;99.90
21115;DHT22;10715;48.546;9.896;2022-07-24T01:27:24;14.90;99.90
21115;DHT22;10715;48.546;9.896;2022-07-24T01:29:51;14.90;99.90
21115;DHT22;10715;48.546;9.896;2022-07-24T01:32:17;14.90;99.90
21115;DHT22;10715;48.546;9.896;2022-07-24T01:34:43;14.90;99.90
21115;DHT22;10715;48.546;9.896;2022-07-24T01:37:09;14.80;99.90
21115;DHT22;10715;48.546;9.896;2022-07-24T01:39:35;14.80;99.90
21115;DHT22;10715;48.546;9.896;2022-07-24T01:42:01;14.80;99.90
21115;DHT22;10715;48.546;9.896;2022-07-24T01:44:27;14.80;99.90
21115;DHT22;10715;48.546;9.896;2022-07-24T01:46:53;14.90;99.90
21115;DHT22;10715;48.546;9.896;2022-07-24T01:49:19;14.90;99.90
21115;DHT22;10715;48.546;9.896;2022-07-24T01:51:45;15.00;99.90
21115;DHT22;10715;48.546;9.896;2022-07-24T01:54:11;15.00;99.90
21115;DHT22;10715;48.546;9.896;2022-07-24T01:56:36;15.00;99.90
21115;DHT22;10715;48.546;9.896;2022-07-24T01:59:02;15.00;99.90
21115;DHT22;10715;48.546;9.896;2022-07-24T02:01:28;15.00;99.90
21115;DHT22;10715;48.546;9.896;2022-07-24T02:03:57;15.00;99.90
21115;DHT22;10715;48.546;9.896;2022-07-24T02:06:23;14.90;99.90
21115;DHT22;10715;48.546;9.896;2022-07-24T02:08:48;14.90;99.90
21115;DHT22;10715;48.546;9.896;2022-07-24T02:11:14;14.80;99.90
21115;DHT22;10715;48.546;9.896;2022-07-24T02:13:40;14.80;99.90
21115;DHT22;10715;48.546;9.896;2022-07-24T02:16:06;14.70;99.90
21115;DHT22;10715;48.546;9.896;2022-07-24T02:18:32;14.70;99.90
21115;DHT22;10715;48.546;9.896;2022-07-24T02:20:57;14.60;99.90
21115;DHT22;10715;48.546;9.896;2022-07-24T02:23:23;14.60;99.90
21115;DHT22;10715;48.546;9.896;2022-07-24T02:25:50;14.60;99.90
21115;DHT22;10715;48.546;9.896;2022-07-24T02:28:17;14.60;99.90
21115;DHT22;10715;48.546;9.896;2022-07-24T02:30:43;14.50;99.90
21115;DHT22;10715;48.546;9.896;2022-07-24T02:33:08;14.40;99.90
21115;DHT22;10715;48.546;9.896;2022-07-24T02:35:35;14.40;99.90
21115;DHT22;10715;48.546;9.896;2022-07-24T02:38:01;14.40;99.90
21115;DHT22;10715;48.546;9.896;2022-07-24T02:40:27;14.40;99.90
21115;DHT22;10715;48.546;9.896;2022-07-24T02:42:53;14.40;99.90
21115;DHT22;10715;48.546;9.896;2022-07-24T02:45:19;14.40;99.90
21115;DHT22;10715;48.546;9.896;2022-07-24T02:47:49;14.30;99.90
21115;DHT22;10715;48.546;9.896;2022-07-24T02:50:16;14.30;99.90
21115;DHT22;10715;48.546;9.896;2022-07-24T02:52:43;14.30;99.90
21115;DHT22;10715;48.546;9.896;2022-07-24T02:55:09;14.30;99.90
21115;DHT22;10715;48.546;9.896;2022-07-24T02:57:38;14.30;99.90
21115;DHT22;10715;48.546;9.896;2022-07-24T03:00:06;14.20;99.90
21115;DHT22;10715;48.546;9.896;2022-07-24T03:02:32;14.20;99.90
21115;DHT22;10715;48.546;9.896;2022-07-24T03:04:58;14.20;99.90
21115;DHT22;10715;48.546;9.896;2022-07-24T03:07:24;14.20;99.90
21115;DHT22;10715;48.546;9.896;2022-07-24T03:09:50;14.20;99.90
21115;DHT22;10715;48.546;9.896;2022-07-24T03:12:15;14.20;99.90
21115;DHT22;10715;48.546;9.896;2022-07-24T03:14:41;14.20;99.90
21115;DHT22;10715;48.546;9.896;2022-07-24T03:17:07;14.10;99.90
21115;DHT22;10715;48.546;9.896;2022-07-24T03:19:32;14.10;99.90
21115;DHT22;10715;48.546;9.896;2022-07-24T03:21:58;14.10;99.90
21115;DHT22;10715;48.546;9.896;2022-07-24T03:24:24;14.00;99.90
21115;DHT22;10715;48.546;9.896;2022-07-24T03:26:50;14.00;99.90
21115;DHT22;10715;48.546;9.896;2022-07-24T03:29:15;14.00;99.90
21115;DHT22;10715;48.546;9.896;2022-07-24T03:31:41;14.00;99.90
21115;DHT22;10715;48.546;9.896;2022-07-24T03:34:07;13.90;99.90
21115;DHT22;10715;48.546;9.896;2022-07-24T03:36:32;13.90;99.90
21115;DHT22;10715;48.546;9.896;2022-07-24T03:38:58;13.90;99.90
21115;DHT22;10715;48.546;9.896;2022-07-24T03:41:24;13.80;99.90
21115;DHT22;10715;48.546;9.896;2022-07-24T03:43:50;13.80;99.90
21115;DHT22;10715;48.546;9.896;2022-07-24T03:46:15;13.80;99.90
21115;DHT22;10715;48.546;9.896;2022-07-24T03:48:41;13.80;99.90
21115;DHT22;10715;48.546;9.896;2022-07-24T03:51:07;13.80;99.90
21115;DHT22;10715;48.546;9.896;2022-07-24T03:53:32;13.80;99.90
21115;DHT22;10715;48.546;9.896;2022-07-24T03:55:58;13.80;99.90
21115;DHT22;10715;48.546;9.896;2022-07-24T03:58:24;13.80;99.90
21115;DHT22;10715;48.546;9.896;2022-07-24T04:00:50;13.80;99.90
21115;DHT22;10715;48.546;9.896;2022-07-24T04:03:15;13.80;99.90
21115;DHT22;10715;48.546;9.896;2022-07-24T04:05:41;13.80;99.90
21115;DHT22;10715;48.546;9.896;2022-07-24T04:08:07;13.80;99.90
21115;DHT22;10715;48.546;9.896;2022-07-24T04:10:32;13.80;99.90
21115;DHT22;10715;48.546;9.896;2022-07-24T04:12:58;13.80;99.90
21115;DHT22;10715;48.546;9.896;2022-07-24T04:15:24;13.80;99.90
21115;DHT22;10715;48.546;9.896;2022-07-24T04:17:50;13.80;99.90
21115;DHT22;10715;48.546;9.896;2022-07-24T04:20:15;13.80;99.90
21115;DHT22;10715;48.546;9.896;2022-07-24T04:22:44;13.80;99.90
21115;DHT22;10715;48.546;9.896;2022-07-24T04:25:10;13.90;99.90
21115;DHT22;10715;48.546;9.896;2022-07-24T04:27:35;13.90;99.90
21115;DHT22;10715;48.546;9.896;2022-07-24T04:30:01;13.90;99.90
21115;DHT22;10715;48.546;9.896;2022-07-24T04:32:27;14.00;99.90
21115;DHT22;10715;48.546;9.896;2022-07-24T04:34:53;14.00;99.90
21115;DHT22;10715;48.546;9.896;2022-07-24T04:37:19;14.10;99.90
21115;DHT22;10715;48.546;9.896;2022-07-24T04:39:44;14.20;99.90
21115;DHT22;10715;48.546;9.896;2022-07-24T04:42:10;14.30;99.90
21115;DHT22;10715;48.546;9.896;2022-07-24T04:44:36;14.30;99.90
21115;DHT22;10715;48.546;9.896;2022-07-24T04:47:01;14.40;99.90
21115;DHT22;10715;48.546;9.896;2022-07-24T04:49:27;14.50;99.90
21115;DHT22;10715;48.546;9.896;2022-07-24T04:51:53;14.60;99.90
21115;DHT22;10715;48.546;9.896;2022-07-24T04:54:19;14.60;99.90
21115;DHT22;10715;48.546;9.896;2022-07-24T04:56:44;14.80;99.90
21115;DHT22;10715;48.546;9.896;2022-07-24T04:59:10;14.80;99.90
21115;DHT22;10715;48.546;9.896;2022-07-24T05:01:36;14.90;99.90
21115;DHT22;10715;48.546;9.896;2022-07-24T05:04:01;15.00;99.90
21115;DHT22;10715;48.546;9.896;2022-07-24T05:06:27;15.10;99.90
21115;DHT22;10715;48.546;9.896;2022-07-24T05:08:53;15.20;99.90
21115;DHT22;10715;48.546;9.896;2022-07-24T05:11:18;15.30;99.90
21115;DHT22;10715;48.546;9.896;2022-07-24T05:13:44;15.50;99.90
21115;DHT22;10715;48.546;9.896;2022-07-24T05:16:10;15.60;99.90
21115;DHT22;10715;48.546;9.896;2022-07-24T05:18:36;15.80;99.90
21115;DHT22;10715;48.546;9.896;2022-07-24T05:21:01;16.10;99.90
21115;DHT22;10715;48.546;9.896;2022-07-24T05:23:27;16.30;99.90
21115;DHT22;10715;48.546;9.896;2022-07-24T05:25:53;16.70;99.90
21115;DHT22;10715;48.546;9.896;2022-07-24T05:28:18;17.10;99.90
21115;DHT22;10715;48.546;9.896;2022-07-24T05:30:44;17.60;99.90
21115;DHT22;10715;48.546;9.896;2022-07-24T05:33:10;18.20;99.90
21115;DHT22;10715;48.546;9.896;2022-07-24T05:35:36;18.80;99.90
21115;DHT22;10715;48.546;9.896;2022-07-24T05:38:02;19.50;99.90
21115;DHT22;10715;48.546;9.896;2022-07-24T05:40:27;20.40;99.90
21115;DHT22;10715;48.546;9.896;2022-07-24T05:42:53;21.20;99.90
21115;DHT22;10715;48.546;9.896;2022-07-24T05:45:19;22.20;99.90
21115;DHT22;10715;48.546;9.896;2022-07-24T05:47:45;23.00;99.90
21115;DHT22;10715;48.546;9.896;2022-07-24T05:50:12;23.70;99.90
21115;DHT22;10715;48.546;9.896;2022-07-24T05:52:38;24.30;99.90
21115;DHT22;10715;48.546;9.896;2022-07-24T05:55:05;25.20;99.90
21115;DHT22;10715;48.546;9.896;2022-07-24T05:57:31;25.80;99.90
21115;DHT22;10715;48.546;9.896;2022-07-24T05:59:56;25.90;99.90
21115;DHT22;10715;48.546;9.896;2022-07-24T06:02:22;26.50;99.90
21115;DHT22;10715;48.546;9.896;2022-07-24T06:04:48;27.10;99.90
21115;DHT22;10715;48.546;9.896;2022-07-24T06:07:14;27.80;99.90
21115;DHT22;10715;48.546;9.896;2022-07-24T06:09:39;28.30;99.90
21115;DHT22;10715;48.546;9.896;2022-07-24T06:12:06;28.80;99.90
21115;DHT22;10715;48.546;9.896;2022-07-24T06:14:33;29.20;99.90
21115;DHT22;10715;48.546;9.896;2022-07-24T06:16:58;29.60;99.90
21115;DHT22;10715;48.546;9.896;2022-07-24T06:19:25;30.00;98.80
21115;DHT22;10715;48.546;9.896;2022-07-24T06:21:51;30.10;97.50
21115;DHT22;10715;48.546;9.896;2022-07-24T06:24:18;30.40;96.00
21115;DHT22;10715;48.546;9.896;2022-07-24T06:26:44;31.00;95.40
21115;DHT22;10715;48.546;9.896;2022-07-24T06:29:10;31.50;93.60
21115;DHT22;10715;48.546;9.896;2022-07-24T06:31:35;32.10;92.50
21115;DHT22;10715;48.546;9.896;2022-07-24T06:34:01;32.70;90.10
21115;DHT22;10715;48.546;9.896;2022-07-24T06:36:27;33.20;86.40
21115;DHT22;10715;48.546;9.896;2022-07-24T06:38:53;33.80;84.50
21115;DHT22;10715;48.546;9.896;2022-07-24T06:41:19;34.20;83.00
21115;DHT22;10715;48.546;9.896;2022-07-24T06:43:44;34.50;81.60
21115;DHT22;10715;48.546;9.896;2022-07-24T06:46:10;34.60;79.00
21115;DHT22;10715;48.546;9.896;2022-07-24T06:48:36;34.70;78.70
21115;DHT22;10715;48.546;9.896;2022-07-24T06:51:04;34.60;76.70
21115;DHT22;10715;48.546;9.896;2022-07-24T06:53:29;34.60;76.10
21115;DHT22;10715;48.546;9.896;2022-07-24T06:55:55;35.10;74.20
21115;DHT22;10715;48.546;9.896;2022-07-24T06:58:21;35.70;71.60
21115;DHT22;10715;48.546;9.896;2022-07-24T07:00:48;36.10;70.10
21115;DHT22;10715;48.546;9.896;2022-07-24T07:03:15;36.50;67.40
21115;DHT22;10715;48.546;9.896;2022-07-24T07:05:41;36.30;63.00
21115;DHT22;10715;48.546;9.896;2022-07-24T07:08:07;36.40;66.10
21115;DHT22;10715;48.546;9.896;2022-07-24T07:10:33;36.70;62.10
21115;DHT22;10715;48.546;9.896;2022-07-24T07:12:58;36.90;62.40
21115;DHT22;10715;48.546;9.896;2022-07-24T07:15:25;37.20;60.80
21115;DHT22;10715;48.546;9.896;2022-07-24T07:17:50;37.40;60.60
21115;DHT22;10715;48.546;9.896;2022-07-24T07:20:16;37.50;57.40
21115;DHT22;10715;48.546;9.896;2022-07-24T07:22:42;37.20;58.90
21115;DHT22;10715;48.546;9.896;2022-07-24T07:25:09;37.40;58.70
21115;DHT22;10715;48.546;9.896;2022-07-24T07:27:36;37.70;57.50
21115;DHT22;10715;48.546;9.896;2022-07-24T07:30:06;37.80;59.30
21115;DHT22;10715;48.546;9.896;2022-07-24T07:32:32;37.80;55.80
21115;DHT22;10715;48.546;9.896;2022-07-24T07:34:58;37.60;54.60
21115;DHT22;10715;48.546;9.896;2022-07-24T07:37:23;37.80;54.20
21115;DHT22;10715;48.546;9.896;2022-07-24T07:39:49;37.80;55.00
21115;DHT22;10715;48.546;9.896;2022-07-24T07:42:15;37.80;55.80
21115;DHT22;10715;48.546;9.896;2022-07-24T07:44:41;38.40;54.70
21115;DHT22;10715;48.546;9.896;2022-07-24T07:47:06;38.70;53.50
21115;DHT22;10715;48.546;9.896;2022-07-24T07:49:32;38.60;52.00
21115;DHT22;10715;48.546;9.896;2022-07-24T07:51:59;38.20;53.30
21115;DHT22;10715;48.546;9.896;2022-07-24T07:54:25;38.10;53.20
21115;DHT22;10715;48.546;9.896;2022-07-24T07:56:50;38.30;52.90
21115;DHT22;10715;48.546;9.896;2022-07-24T07:59:16;38.30;53.20
21115;DHT22;10715;48.546;9.896;2022-07-24T08:01:42;38.40;52.70
21115;DHT22;10715;48.546;9.896;2022-07-24T08:04:08;38.30;52.10
21115;DHT22;10715;48.546;9.896;2022-07-24T08:06:34;38.60;52.00
21115;DHT22;10715;48.546;9.896;2022-07-24T08:08:59;39.30;51.60
21115;DHT22;10715;48.546;9.896;2022-07-24T08:11:25;39.20;52.10
21115;DHT22;10715;48.546;9.896;2022-07-24T08:13:51;39.00;50.30
21115;DHT22;10715;48.546;9.896;2022-07-24T08:16:17;39.60;50.80
21115;DHT22;10715;48.546;9.896;2022-07-24T08:18:42;40.00;48.60
21115;DHT22;10715;48.546;9.896;2022-07-24T08:21:08;40.30;49.30
21115;DHT22;10715;48.546;9.896;2022-07-24T08:23:34;40.40;49.70
21115;DHT22;10715;48.546;9.896;2022-07-24T08:25:59;40.70;50.30
21115;DHT22;10715;48.546;9.896;2022-07-24T08:28:25;41.10;48.30
21115;DHT22;10715;48.546;9.896;2022-07-24T08:30:51;41.40;47.60
21115;DHT22;10715;48.546;9.896;2022-07-24T08:33:17;41.60;48.10
21115;DHT22;10715;48.546;9.896;2022-07-24T08:35:43;41.30;45.20
21115;DHT22;10715;48.546;9.896;2022-07-24T08:38:09;41.10;46.30
21115;DHT22;10715;48.546;9.896;2022-07-24T08:40:37;41.00;46.00
21115;DHT22;10715;48.546;9.896;2022-07-24T08:43:05;41.20;45.90
21115;DHT22;10715;48.546;9.896;2022-07-24T08:45:35;41.20;47.20
21115;DHT22;10715;48.546;9.896;2022-07-24T08:48:07;41.40;46.30
21115;DHT22;10715;48.546;9.896;2022-07-24T08:50:35;40.90;44.60
21115;DHT22;10715;48.546;9.896;2022-07-24T08:53:02;39.10;47.30
21115;DHT22;10715;48.546;9.896;2022-07-24T08:55:29;37.20;49.70
21115;DHT22;10715;48.546;9.896;2022-07-24T08:57:56;36.30;53.60
21115;DHT22;10715;48.546;9.896;2022-07-24T09:00:23;36.60;53.20
21115;DHT22;10715;48.546;9.896;2022-07-24T09:02:49;37.80;51.00
21115;DHT22;10715;48.546;9.896;2022-07-24T09:05:15;38.30;48.00
21115;DHT22;10715;48.546;9.896;2022-07-24T09:07:40;36.90;49.10
21115;DHT22;10715;48.546;9.896;2022-07-24T09:10:09;35.10;52.90
21115;DHT22;10715;48.546;9.896;2022-07-24T09:12:40;33.60;54.70
21115;DHT22;10715;48.546;9.896;2022-07-24T09:15:18;32.40;57.00
21115;DHT22;10715;48.546;9.896;2022-07-24T09:17:53;31.50;58.90
21115;DHT22;10715;48.546;9.896;2022-07-24T09:20:20;31.50;62.30
21115;DHT22;10715;48.546;9.896;2022-07-24T09:22:47;33.00;59.90
21115;DHT22;10715;48.546;9.896;2022-07-24T09:25:23;35.20;55.90
21115;DHT22;10715;48.546;9.896;2022-07-24T09:27:56;37.00;53.30
21115;DHT22;10715;48.546;9.896;2022-07-24T09:33:03;37.50;51.70
21115;DHT22;10715;48.546;9.896;2022-07-24T09:35:37;35.90;52.20
21115;DHT22;10715;48.546;9.896;2022-07-24T09:38:05;34.90;54.40
21115;DHT22;10715;48.546;9.896;2022-07-24T09:40:37;35.50;54.40
21115;DHT22;10715;48.546;9.896;2022-07-24T09:46:10;38.40;48.20
21115;DHT22;10715;48.546;9.896;2022-07-24T09:51:15;39.90;45.30
21115;DHT22;10715;48.546;9.896;2022-07-24T09:53:43;38.40;46.70
21115;DHT22;10715;48.546;9.896;2022-07-24T09:56:11;37.00;51.70
21115;DHT22;10715;48.546;9.896;2022-07-24T10:01:11;38.80;47.00
21115;DHT22;10715;48.546;9.896;2022-07-24T10:03:38;39.80;46.10
21115;DHT22;10715;48.546;9.896;2022-07-24T10:06:07;39.10;46.80
21115;DHT22;10715;48.546;9.896;2022-07-24T10:08:34;39.70;45.80
21115;DHT22;10715;48.546;9.896;2022-07-24T10:11:01;40.90;44.50
21115;DHT22;10715;48.546;9.896;2022-07-24T10:13:27;41.60;42.80
21115;DHT22;10715;48.546;9.896;2022-07-24T10:16:02;41.80;41.80
21115;DHT22;10715;48.546;9.896;2022-07-24T10:29:13;42.50;41.30
21115;DHT22;10715;48.546;9.896;2022-07-24T10:31:45;42.10;42.00
21115;DHT22;10715;48.546;9.896;2022-07-24T10:42:17;35.50;49.90
21115;DHT22;10715;48.546;9.896;2022-07-24T10:44:43;33.90;51.80
21115;DHT22;10715;48.546;9.896;2022-07-24T10:47:11;32.60;53.80
21115;DHT22;10715;48.546;9.896;2022-07-24T10:52:11;31.30;56.60
21115;DHT22;10715;48.546;9.896;2022-07-24T10:54:38;31.10;57.50
21115;DHT22;10715;48.546;9.896;2022-07-24T10:57:05;30.70;57.10
21115;DHT22;10715;48.546;9.896;2022-07-24T10:59:34;30.40;57.40
21115;DHT22;10715;48.546;9.896;2022-07-24T11:02:27;30.50;58.30
21115;DHT22;10715;48.546;9.896;2022-07-24T11:08:27;30.70;56.90
21115;DHT22;10715;48.546;9.896;2022-07-24T11:10:58;30.70;59.10
21115;DHT22;10715;48.546;9.896;2022-07-24T11:21:27;29.90;58.10
21115;DHT22;10715;48.546;9.896;2022-07-24T11:26:51;29.40;59.90
21115;DHT22;10715;48.546;9.896;2022-07-24T11:29:23;29.20;62.00
21115;DHT22;10715;48.546;9.896;2022-07-24T11:32:11;29.00;63.30
21115;DHT22;10715;48.546;9.896;2022-07-24T11:34:46;28.80;63.20
21115;DHT22;10715;48.546;9.896;2022-07-24T11:37:15;28.60;63.10
21115;DHT22;10715;48.546;9.896;2022-07-24T11:39:42;28.70;64.40
21115;DHT22;10715;48.546;9.896;2022-07-24T11:42:12;29.10;63.90
21115;DHT22;10715;48.546;9.896;2022-07-24T11:44:44;29.30;61.60
21115;DHT22;10715;48.546;9.896;2022-07-24T11:49:44;29.50;62.50
21115;DHT22;10715;48.546;9.896;2022-07-24T11:52:26;29.40;61.30
21115;DHT22;10715;48.546;9.896;2022-07-24T11:54:54;29.20;62.80
21115;DHT22;10715;48.546;9.896;2022-07-24T11:57:25;29.20;61.90
21115;DHT22;10715;48.546;9.896;2022-07-24T11:59:52;29.40;62.90
21115;DHT22;10715;48.546;9.896;2022-07-24T12:02:19;29.60;61.90
21115;DHT22;10715;48.546;9.896;2022-07-24T12:04:46;29.80;63.10
21115;DHT22;10715;48.546;9.896;2022-07-24T12:07:15;30.00;61.70
21115;DHT22;10715;48.546;9.896;2022-07-24T12:09:49;30.20;61.70
21115;DHT22;10715;48.546;9.896;2022-07-24T12:14:45;30.50;58.90
21115;DHT22;10715;48.546;9.896;2022-07-24T12:17:11;30.40;60.10
21115;DHT22;10715;48.546;9.896;2022-07-24T12:19:37;30.60;60.30
21115;DHT22;10715;48.546;9.896;2022-07-24T12:22:02;30.70;60.40
21115;DHT22;10715;48.546;9.896;2022-07-24T12:24:31;30.70;58.50
21115;DHT22;10715;48.546;9.896;2022-07-24T12:26:58;30.50;58.20
21115;DHT22;10715;48.546;9.896;2022-07-24T12:29:26;30.30;59.40
21115;DHT22;10715;48.546;9.896;2022-07-24T12:34:47;30.00;59.80
21115;DHT22;10715;48.546;9.896;2022-07-24T12:37:20;29.90;59.10
21115;DHT22;10715;48.546;9.896;2022-07-24T12:39:51;30.00;58.60
21115;DHT22;10715;48.546;9.896;2022-07-24T12:42:18;30.10;59.40
21115;DHT22;10715;48.546;9.896;2022-07-24T12:44:53;30.20;58.30
21115;DHT22;10715;48.546;9.896;2022-07-24T12:47:19;30.20;58.50
21115;DHT22;10715;48.546;9.896;2022-07-24T12:49:45;30.40;60.00
21115;DHT22;10715;48.546;9.896;2022-07-24T12:52:25;30.50;58.40
21115;DHT22;10715;48.546;9.896;2022-07-24T12:54:54;30.60;59.60
21115;DHT22;10715;48.546;9.896;2022-07-24T12:57:23;30.60;59.80
21115;DHT22;10715;48.546;9.896;2022-07-24T12:59:50;30.50;59.00
21115;DHT22;10715;48.546;9.896;2022-07-24T13:02:21;30.30;61.10
21115;DHT22;10715;48.546;9.896;2022-07-24T13:04:55;30.10;61.50
21115;DHT22;10715;48.546;9.896;2022-07-24T13:07:26;30.10;59.60
21115;DHT22;10715;48.546;9.896;2022-07-24T13:09:53;30.20;58.90
21115;DHT22;10715;48.546;9.896;2022-07-24T13:12:19;30.20;59.00
21115;DHT22;10715;48.546;9.896;2022-07-24T13:14:45;30.20;58.90
21115;DHT22;10715;48.546;9.896;2022-07-24T13:17:13;30.20;58.40
21115;DHT22;10715;48.546;9.896;2022-07-24T13:19:40;30.20;59.70
21115;DHT22;10715;48.546;9.896;2022-07-24T13:22:06;30.40;59.30
21115;DHT22;10715;48.546;9.896;2022-07-24T13:24:32;30.60;58.50
21115;DHT22;10715;48.546;9.896;2022-07-24T13:26:59;30.90;58.80
21115;DHT22;10715;48.546;9.896;2022-07-24T13:29:25;31.10;57.20
21115;DHT22;10715;48.546;9.896;2022-07-24T13:31:52;31.20;56.50
21115;DHT22;10715;48.546;9.896;2022-07-24T13:34:18;31.00;55.60
21115;DHT22;10715;48.546;9.896;2022-07-24T13:36:44;30.70;57.20
21115;DHT22;10715;48.546;9.896;2022-07-24T13:39:10;30.50;57.10
21115;DHT22;10715;48.546;9.896;2022-07-24T13:41:36;30.50;57.60
21115;DHT22;10715;48.546;9.896;2022-07-24T13:44:03;30.60;56.50
21115;DHT22;10715;48.546;9.896;2022-07-24T13:46:30;30.90;58.10
21115;DHT22;10715;48.546;9.896;2022-07-24T13:48:56;31.20;57.70
21115;DHT22;10715;48.546;9.896;2022-07-24T13:51:22;31.40;57.30
21115;DHT22;10715;48.546;9.896;2022-07-24T13:53:48;31.70;56.50
21115;DHT22;10715;48.546;9.896;2022-07-24T13:56:14;31.80;55.40
21115;DHT22;10715;48.546;9.896;2022-07-24T13:58:40;31.70;55.10
21115;DHT22;10715;48.546;9.896;2022-07-24T14:01:08;31.20;56.10
21115;DHT22;10715;48.546;9.896;2022-07-24T14:03:34;30.80;56.80
21115;DHT22;10715;48.546;9.896;2022-07-24T14:06:00;30.50;57.20
21115;DHT22;10715;48.546;9.896;2022-07-24T14:08:27;30.20;58.50
21115;DHT22;10715;48.546;9.896;2022-07-24T14:10:53;30.00;57.60
21115;DHT22;10715;48.546;9.896;2022-07-24T14:13:19;30.00;58.50
21115;DHT22;10715;48.546;9.896;2022-07-24T14:15:45;30.10;58.30
21115;DHT22;10715;48.546;9.896;2022-07-24T14:18:11;30.00;57.80
21115;DHT22;10715;48.546;9.896;2022-07-24T14:20:37;29.90;57.70
21115;DHT22;10715;48.546;9.896;2022-07-24T14:23:03;29.70;59.40
21115;DHT22;10715;48.546;9.896;2022-07-24T14:25:29;29.50;58.90
21115;DHT22;10715;48.546;9.896;2022-07-24T14:27:54;29.30;58.80
21115;DHT22;10715;48.546;9.896;2022-07-24T14:30:20;29.20;59.40
21115;DHT22;10715;48.546;9.896;2022-07-24T14:32:46;29.30;59.10
21115;DHT22;10715;48.546;9.896;2022-07-24T14:35:11;29.50;59.80
21115;DHT22;10715;48.546;9.896;2022-07-24T14:37:38;29.80;57.90
21115;DHT22;10715;48.546;9.896;2022-07-24T14:40:06;29.90;57.10
21115;DHT22;10715;48.546;9.896;2022-07-24T14:42:33;30.00;57.30
21115;DHT22;10715;48.546;9.896;2022-07-24T14:44:59;30.20;56.70
21115;DHT22;10715;48.546;9.896;2022-07-24T14:47:25;30.40;56.70
21115;DHT22;10715;48.546;9.896;2022-07-24T14:49:51;30.50;57.20
21115;DHT22;10715;48.546;9.896;2022-07-24T14:52:17;30.70;56.70
21115;DHT22;10715;48.546;9.896;2022-07-24T14:54:46;30.70;55.50
21115;DHT22;10715;48.546;9.896;2022-07-24T14:57:12;30.80;56.00
21115;DHT22;10715;48.546;9.896;2022-07-24T14:59:38;30.70;56.10
21115;DHT22;10715;48.546;9.896;2022-07-24T15:02:04;30.50;55.90
21115;DHT22;10715;48.546;9.896;2022-07-24T15:04:30;30.30;56.00
21115;DHT22;10715;48.546;9.896;2022-07-24T15:06:55;30.40;56.70
21115;DHT22;10715;48.546;9.896;2022-07-24T15:09:21;30.60;56.10
21115;DHT22;10715;48.546;9.896;2022-07-24T15:11:47;30.70;55.70
21115;DHT22;10715;48.546;9.896;2022-07-24T15:14:13;30.70;56.90
21115;DHT22;10715;48.546;9.896;2022-07-24T15:16:39;30.80;55.40
21115;DHT22;10715;48.546;9.896;2022-07-24T15:19:05;31.00;54.70
21115;DHT22;10715;48.546;9.896;2022-07-24T15:21:30;30.90;54.30
21115;DHT22;10715;48.546;9.896;2022-07-24T15:23:56;30.90;54.80
21115;DHT22;10715;48.546;9.896;2022-07-24T15:26:23;30.70;54.70
21115;DHT22;10715;48.546;9.896;2022-07-24T15:28:48;30.70;55.40
21115;DHT22;10715;48.546;9.896;2022-07-24T15:31:14;30.80;55.00
21115;DHT22;10715;48.546;9.896;2022-07-24T15:33:43;30.80;55.30
21115;DHT22;10715;48.546;9.896;2022-07-24T15:36:09;30.90;55.50
21115;DHT22;10715;48.546;9.896;2022-07-24T15:38:35;31.00;56.10
21115;DHT22;10715;48.546;9.896;2022-07-24T15:41:01;31.20;56.10
21115;DHT22;10715;48.546;9.896;2022-07-24T15:43:27;31.30;56.30
21115;DHT22;10715;48.546;9.896;2022-07-24T15:45:53;31.40;56.10
21115;DHT22;10715;48.546;9.896;2022-07-24T15:48:19;31.40;55.10
21115;DHT22;10715;48.546;9.896;2022-07-24T15:50:45;31.40;55.20
21115;DHT22;10715;48.546;9.896;2022-07-24T15:53:10;31.30;54.70
21115;DHT22;10715;48.546;9.896;2022-07-24T15:55:36;31.00;54.70
21115;DHT22;10715;48.546;9.896;2022-07-24T15:58:02;30.80;54.90
21115;DHT22;10715;48.546;9.896;2022-07-24T16:00:28;30.60;56.00
21115;DHT22;10715;48.546;9.896;2022-07-24T16:02:54;30.50;56.30
21115;DHT22;10715;48.546;9.896;2022-07-24T16:05:20;30.50;55.60
21115;DHT22;10715;48.546;9.896;2022-07-24T16:07:49;30.50;55.90
21115;DHT22;10715;48.546;9.896;2022-07-24T16:10:15;30.40;56.10
21115;DHT22;10715;48.546;9.896;2022-07-24T16:12:43;30.30;54.80
21115;DHT22;10715;48.546;9.896;2022-07-24T16:15:08;30.20;55.40
21115;DHT22;10715;48.546;9.896;2022-07-24T16:17:34;30.20;55.60
21115;DHT22;10715;48.546;9.896;2022-07-24T16:20:00;30.00;55.80
21115;DHT22;10715;48.546;9.896;2022-07-24T16:22:27;30.00;56.10